createdAt,value
2022-08-28T00:02:21.060Z,2.53
2022-08-28T00:04:50.230Z,4.70
2022-08-28T00:07:19.351Z,3.40
2022-08-28T00:09:49.186Z,3.45
2022-08-28T00:12:17.945Z,4.75
2022-08-28T00:14:46.496Z,3.63
2022-08-28T00:17:14.990Z,3.17
2022-08-28T00:19:43.597Z,4.05
2022-08-28T00:22:12.182Z,4.15
2022-08-28T00:24:42.816Z,4.20
2022-08-28T00:27:30.449Z,3.35
2022-08-28T00:29:59.209Z,3.05
2022-08-28T00:32:28.361Z,2.78
2022-08-28T00:34:56.847Z,4.50
2022-08-28T00:37:25.321Z,4.60
2022-08-28T00:39:54.767Z,5.80
2022-08-28T00:42:24.716Z,3.65
2022-08-28T00:44:53.182Z,4.05
2022-08-28T00:47:26.458Z,4.07
2022-08-28T00:49:57.289Z,3.25
2022-08-28T00:52:26.917Z,5.50
2022-08-28T00:54:59.940Z,2.78
2022-08-28T00:57:33.317Z,4.45
2022-08-28T01:00:02.200Z,8.00
2022-08-28T01:02:31.844Z,4.65
2022-08-28T01:05:00.403Z,8.05
2022-08-28T01:07:29.141Z,2.13
2022-08-28T01:09:59.313Z,6.20
2022-08-28T01:12:33.725Z,1.90
2022-08-28T01:15:04.762Z,5.25
2022-08-28T01:17:35.965Z,2.72
2022-08-28T01:22:42.101Z,4.57
2022-08-28T01:25:15.204Z,3.45
2022-08-28T01:27:43.984Z,7.10
2022-08-28T01:30:15.689Z,3.33
2022-08-28T01:32:49.474Z,3.40
2022-08-28T01:35:21.106Z,4.18
2022-08-28T01:37:49.698Z,3.83
2022-08-28T01:40:24.870Z,3.75
2022-08-28T01:42:55.098Z,4.78
2022-08-28T01:45:26.217Z,3.22
2022-08-28T01:47:57.375Z,4.60
2022-08-28T01:50:25.863Z,4.93
2022-08-28T01:52:54.320Z,5.20
2022-08-28T01:55:24.271Z,4.25
2022-08-28T01:57:56.160Z,6.80
2022-08-28T02:00:27.554Z,7.72
2022-08-28T02:02:58.253Z,4.15
2022-08-28T02:05:29.813Z,3.63
2022-08-28T02:07:58.811Z,3.13
2022-08-28T02:10:30.444Z,6.82
2022-08-28T02:12:59.841Z,3.72
2022-08-28T02:15:30.596Z,4.28
2022-08-28T02:17:59.853Z,3.65
2022-08-28T02:20:30.506Z,5.57
2022-08-28T02:22:59.446Z,5.55
2022-08-28T02:25:30.824Z,3.95
2022-08-28T02:27:59.590Z,3.85
2022-08-28T02:30:28.633Z,3.60
2022-08-28T02:32:57.869Z,4.68
2022-08-28T02:35:26.435Z,6.93
2022-08-28T02:37:55.592Z,3.85
2022-08-28T02:40:25.600Z,4.55
2022-08-28T02:42:55.591Z,5.82
2022-08-28T02:45:24.113Z,3.50
2022-08-28T02:47:53.933Z,5.65
2022-08-28T02:50:22.756Z,3.97
2022-08-28T02:52:51.634Z,5.82
2022-08-28T02:55:21.243Z,5.70
2022-08-28T02:57:50.299Z,4.15
2022-08-28T03:00:23.508Z,4.68
2022-08-28T03:02:53.356Z,6.60
2022-08-28T03:05:25.014Z,7.25
2022-08-28T03:07:54.412Z,5.03
2022-08-28T03:10:23.045Z,6.97
2022-08-28T03:12:51.709Z,5.18
2022-08-28T03:15:22.233Z,5.38
2022-08-28T03:17:51.235Z,4.95
2022-08-28T03:20:20.069Z,5.40
2022-08-28T03:23:06.491Z,4.70
2022-08-28T03:25:35.025Z,5.35
2022-08-28T03:28:03.911Z,6.80
2022-08-28T03:30:33.937Z,4.95
2022-08-28T03:33:02.997Z,4.60
2022-08-28T03:35:31.755Z,5.82
2022-08-28T03:38:00.393Z,7.50
2022-08-28T03:40:29.075Z,5.43
2022-08-28T03:42:57.637Z,7.60
2022-08-28T03:45:27.946Z,4.95
2022-08-28T03:47:57.893Z,7.40
2022-08-28T03:50:26.409Z,5.95
2022-08-28T03:52:57.471Z,7.72
2022-08-28T03:55:26.759Z,5.03
2022-08-28T03:57:55.353Z,6.32
2022-08-28T04:00:24.057Z,6.75
2022-08-28T04:02:53.514Z,5.63
2022-08-28T04:05:23.442Z,6.75
2022-08-28T04:07:53.850Z,6.38
2022-08-28T04:10:22.412Z,10.40
2022-08-28T04:12:50.984Z,6.63
2022-08-28T04:15:20.277Z,4.43
2022-08-28T04:17:49.497Z,6.20
2022-08-28T04:20:18.015Z,10.10
2022-08-28T04:22:48.015Z,5.97
2022-08-28T04:25:16.570Z,10.70
2022-08-28T04:27:45.112Z,11.20
2022-08-28T04:30:14.480Z,8.02
2022-08-28T04:32:43.629Z,5.30
2022-08-28T04:35:14.628Z,8.38
2022-08-28T04:37:44.194Z,8.38
2022-08-28T04:40:15.847Z,6.22
2022-08-28T04:42:45.262Z,7.50
2022-08-28T04:45:13.826Z,6.68
2022-08-28T04:47:43.318Z,8.57
2022-08-28T04:50:12.494Z,10.40
2022-08-28T04:52:43.119Z,7.85
2022-08-28T04:55:11.727Z,7.50
2022-08-28T04:57:41.645Z,7.47
2022-08-28T05:00:12.350Z,10.43
2022-08-28T05:02:42.964Z,9.73
2022-08-28T05:05:11.817Z,9.65
2022-08-28T05:07:40.361Z,6.40
2022-08-28T05:10:13.541Z,5.82
2022-08-28T05:12:43.905Z,6.15
2022-08-28T05:15:13.007Z,9.52
2022-08-28T05:17:41.665Z,8.70
2022-08-28T05:20:10.991Z,7.80
2022-08-28T05:22:39.487Z,10.68
2022-08-28T05:25:08.766Z,9.45
2022-08-28T05:27:38.259Z,8.68
2022-08-28T05:30:10.609Z,8.60
2022-08-28T05:32:39.493Z,10.32
2022-08-28T05:35:08.678Z,8.07
2022-08-28T05:37:37.497Z,10.93
2022-08-28T05:40:06.950Z,10.13
2022-08-28T05:42:38.870Z,9.40
2022-08-28T05:45:10.383Z,10.52
2022-08-28T05:47:38.916Z,12.93
2022-08-28T05:50:08.919Z,8.13
2022-08-28T05:52:37.575Z,9.80
2022-08-28T05:55:08.424Z,7.90
2022-08-28T05:57:37.186Z,8.18
2022-08-28T06:00:09.792Z,9.75
2022-08-28T06:02:39.788Z,7.68
2022-08-28T06:05:09.118Z,8.90
2022-08-28T06:07:42.005Z,8.73
2022-08-28T06:10:10.958Z,7.53
2022-08-28T06:12:39.465Z,8.18
2022-08-28T06:15:09.925Z,8.63
2022-08-28T06:17:40.272Z,7.80
2022-08-28T06:20:10.717Z,7.40
2022-08-28T06:22:39.237Z,6.45
2022-08-28T06:25:09.303Z,10.35
2022-08-28T06:27:39.249Z,8.20
2022-08-28T06:30:09.142Z,7.43
2022-08-28T06:32:39.050Z,7.03
2022-08-28T06:35:08.027Z,10.57
2022-08-28T06:37:38.480Z,7.15
2022-08-28T06:40:08.110Z,10.30
2022-08-28T06:42:36.940Z,5.53
2022-08-28T06:45:06.276Z,9.85
2022-08-28T06:47:34.897Z,9.25
2022-08-28T06:50:05.399Z,10.02
2022-08-28T06:52:35.021Z,8.52
2022-08-28T06:55:07.032Z,6.53
2022-08-28T06:57:36.286Z,6.63
2022-08-28T07:00:06.803Z,5.53
2022-08-28T07:02:35.648Z,9.13
2022-08-28T07:05:06.731Z,9.13
2022-08-28T07:07:35.451Z,6.10
2022-08-28T07:10:04.418Z,9.93
2022-08-28T07:12:33.505Z,5.75
2022-08-28T07:15:03.738Z,8.35
2022-08-28T07:17:32.702Z,7.30
2022-08-28T07:20:01.232Z,6.50
2022-08-28T07:22:32.468Z,5.63
2022-08-28T07:25:01.197Z,4.57
2022-08-28T07:27:29.814Z,9.48
2022-08-28T07:29:58.422Z,9.40
2022-08-28T07:32:27.343Z,6.68
2022-08-28T07:34:57.092Z,5.80
2022-08-28T07:37:27.097Z,6.75
2022-08-28T07:39:57.074Z,7.28
2022-08-28T07:42:43.025Z,7.20
2022-08-28T07:45:12.354Z,8.93
2022-08-28T07:47:41.381Z,5.93
2022-08-28T07:50:10.330Z,5.45
2022-08-28T07:52:39.054Z,6.82
2022-08-28T07:55:10.043Z,6.57
2022-08-28T07:57:38.771Z,5.80
2022-08-28T08:00:08.552Z,4.43
2022-08-28T08:02:40.186Z,9.35
2022-08-28T08:05:10.780Z,8.98
2022-08-28T08:07:43.747Z,4.63
2022-08-28T08:10:19.938Z,6.53
2022-08-28T08:12:49.298Z,6.90
2022-08-28T08:15:21.407Z,7.05
2022-08-28T08:17:51.817Z,5.70
2022-08-28T08:20:20.681Z,5.53
2022-08-28T08:22:49.549Z,7.88
2022-08-28T08:25:19.477Z,7.35
2022-08-28T08:27:48.100Z,7.30
2022-08-28T08:30:16.796Z,6.40
2022-08-28T08:32:45.339Z,6.80
2022-08-28T08:35:13.895Z,8.27
2022-08-28T08:37:42.435Z,6.40
2022-08-28T08:40:15.692Z,6.28
2022-08-28T08:42:51.106Z,5.65
2022-08-28T08:45:26.438Z,7.18
2022-08-28T08:47:57.086Z,4.35
2022-08-28T08:50:29.369Z,5.05
2022-08-28T08:53:17.159Z,5.68
2022-08-28T08:55:50.028Z,8.35
2022-08-28T08:58:25.597Z,7.15
2022-08-28T09:01:04.679Z,7.43
2022-08-28T09:03:50.487Z,5.88
2022-08-28T09:06:28.023Z,5.00
2022-08-28T09:09:00.949Z,6.28
2022-08-28T09:11:42.142Z,4.93
2022-08-28T09:14:17.089Z,6.28
2022-08-28T09:16:49.356Z,8.35
2022-08-28T09:19:22.699Z,5.30
2022-08-28T09:21:52.412Z,8.57
2022-08-28T09:24:25.365Z,5.93
2022-08-28T09:26:57.349Z,5.30
2022-08-28T09:29:32.178Z,6.30
2022-08-28T09:32:18.869Z,5.17
2022-08-28T09:35:02.694Z,5.20
2022-08-28T09:37:32.656Z,4.25
2022-08-28T09:40:23.601Z,6.03
2022-08-28T09:43:24.420Z,5.13
2022-08-28T09:45:58.105Z,5.53
2022-08-28T09:48:34.013Z,5.65
2022-08-28T09:51:04.920Z,4.93
2022-08-28T09:53:35.909Z,5.20
2022-08-28T09:56:12.056Z,6.10
2022-08-28T09:58:44.781Z,4.05
2022-08-28T10:01:31.357Z,4.07
2022-08-28T10:30:04.261Z,4.40
2022-08-28T10:32:55.432Z,5.47
2022-08-28T10:35:26.864Z,5.47
2022-08-28T10:38:06.045Z,5.07
2022-08-28T10:40:37.927Z,4.68
2022-08-28T10:43:11.459Z,4.57
2022-08-28T10:45:42.424Z,4.47
2022-08-28T10:48:19.504Z,5.80
2022-08-28T10:50:51.967Z,5.13
2022-08-28T10:53:26.313Z,4.78
2022-08-28T10:55:58.367Z,5.85
2022-08-28T10:58:28.587Z,6.53
2022-08-28T11:01:04.497Z,5.80
2022-08-28T11:03:41.457Z,5.93
2022-08-28T11:06:16.900Z,4.57
2022-08-28T11:08:53.089Z,3.63
2022-08-28T11:11:42.214Z,3.70
2022-08-28T11:14:11.959Z,5.18
2022-08-28T11:16:47.288Z,4.97
2022-08-28T11:19:43.943Z,5.95
2022-08-28T11:22:18.791Z,3.85
2022-08-28T11:24:59.164Z,6.97
2022-08-28T11:27:33.747Z,4.93
2022-08-28T11:30:19.453Z,5.60
2022-08-28T11:33:02.013Z,4.55
2022-08-28T11:35:43.869Z,3.17
2022-08-28T11:38:16.422Z,4.38
2022-08-28T11:40:58.028Z,6.47
2022-08-28T11:43:36.565Z,6.68
2022-08-28T11:46:32.753Z,4.88
2022-08-28T11:49:05.150Z,3.78
2022-08-28T11:52:06.912Z,6.20
2022-08-28T11:54:52.198Z,3.70
2022-08-28T11:57:26.487Z,3.45
2022-08-28T12:02:55.597Z,4.65
2022-08-28T12:05:57.386Z,5.97
2022-08-28T12:09:11.780Z,5.50
2022-08-28T12:12:04.061Z,6.22
2022-08-28T12:15:00.613Z,3.78
2022-08-28T12:17:50.780Z,7.75
2022-08-28T12:20:29.266Z,4.72
2022-08-28T12:23:01.421Z,5.03
2022-08-28T12:25:36.238Z,5.30
2022-08-28T12:28:16.716Z,3.67
2022-08-28T12:30:54.038Z,5.68
2022-08-28T12:33:31.905Z,3.63
2022-08-28T12:36:03.202Z,4.78
2022-08-28T12:38:35.450Z,4.35
2022-08-28T12:41:04.176Z,2.70
2022-08-28T12:43:41.688Z,4.75
2022-08-28T12:46:20.045Z,3.05
2022-08-28T12:48:51.631Z,3.33
2022-08-28T12:51:25.617Z,4.88
2022-08-28T12:53:57.709Z,3.50
2022-08-28T12:56:29.954Z,5.20
2022-08-28T12:59:35.712Z,3.47
2022-08-28T13:02:06.079Z,4.78
2022-08-28T13:04:38.376Z,4.18
2022-08-28T13:07:12.045Z,2.92
2022-08-28T13:09:47.865Z,5.00
2022-08-28T13:12:22.173Z,5.20
2022-08-28T13:15:02.206Z,5.10
2022-08-28T13:17:48.979Z,2.80
2022-08-28T13:20:28.813Z,2.75
2022-08-28T13:22:58.114Z,3.72
2022-08-28T13:25:29.851Z,2.28
2022-08-28T13:28:00.546Z,4.03
2022-08-28T13:30:33.650Z,3.63
2022-08-28T13:33:05.729Z,4.07
2022-08-28T13:35:41.179Z,3.05
2022-08-28T13:38:12.416Z,2.55
2022-08-28T13:41:01.835Z,3.28
2022-08-28T13:43:43.989Z,3.47
2022-08-28T13:46:14.229Z,3.25
2022-08-28T13:48:42.746Z,5.22
2022-08-28T13:51:21.182Z,2.58
2022-08-28T13:53:50.732Z,4.43
2022-08-28T13:56:21.947Z,4.00
2022-08-28T13:58:57.576Z,5.82
2022-08-28T14:01:48.138Z,5.85
2022-08-28T14:04:15.845Z,4.57
2022-08-28T14:06:44.926Z,4.03
2022-08-28T14:09:15.337Z,3.75
2022-08-28T14:11:47.818Z,3.50
2022-08-28T14:14:17.058Z,2.30
2022-08-28T14:16:47.328Z,2.92
2022-08-28T14:19:18.772Z,4.20
2022-08-28T14:21:47.332Z,3.85
2022-08-28T14:24:17.126Z,2.00
2022-08-28T14:26:48.379Z,2.33
2022-08-28T14:29:18.608Z,4.63
2022-08-28T14:32:04.119Z,2.28
2022-08-28T14:34:41.596Z,4.68
2022-08-28T14:37:10.452Z,2.42
2022-08-28T14:39:40.174Z,3.97
2022-08-28T14:42:23.176Z,2.53
2022-08-28T14:44:51.696Z,2.47
2022-08-28T14:47:21.892Z,2.88
2022-08-28T14:49:50.447Z,2.47
2022-08-28T14:52:20.118Z,2.50
2022-08-28T14:54:48.686Z,2.33
2022-08-28T14:57:17.545Z,5.45
2022-08-28T14:59:46.248Z,3.72
2022-08-28T15:02:14.864Z,2.67
2022-08-28T15:04:44.897Z,2.42
2022-08-28T15:07:13.760Z,2.33
2022-08-28T15:09:45.412Z,4.53
2022-08-28T15:12:13.966Z,2.13
2022-08-28T15:14:54.634Z,3.78
2022-08-28T15:17:33.741Z,2.63
2022-08-28T15:20:05.965Z,2.58
2022-08-28T15:22:34.563Z,3.10
2022-08-28T15:25:03.249Z,5.43
2022-08-28T15:27:31.828Z,3.00
2022-08-28T15:30:00.312Z,3.47
2022-08-28T15:32:28.809Z,4.55
2022-08-28T15:34:58.459Z,3.58
2022-08-28T15:37:29.402Z,3.30
2022-08-28T15:40:17.624Z,3.85
2022-08-28T15:42:46.169Z,3.75
2022-08-28T15:45:14.760Z,3.33
2022-08-28T15:47:43.361Z,3.42
2022-08-28T15:50:11.961Z,7.03
2022-08-28T15:52:48.398Z,2.38
2022-08-28T15:55:17.635Z,2.80
2022-08-28T15:57:47.111Z,1.30
2022-08-28T16:00:17.261Z,4.07
2022-08-28T16:02:46.002Z,2.65
2022-08-28T16:05:15.829Z,4.03
2022-08-28T16:07:46.535Z,3.95
2022-08-28T16:10:15.093Z,4.40
2022-08-28T16:12:43.598Z,1.92
2022-08-28T16:15:20.733Z,2.45
2022-08-28T16:17:49.879Z,3.42
2022-08-28T16:20:18.567Z,2.13
2022-08-28T16:22:48.470Z,3.30
2022-08-28T16:25:17.211Z,3.05
2022-08-28T16:27:45.810Z,2.60
2022-08-28T16:30:15.967Z,2.95
2022-08-28T16:32:46.854Z,1.80
2022-08-28T16:35:16.739Z,2.70
2022-08-28T16:37:45.839Z,2.97
2022-08-28T16:40:19.431Z,3.75
2022-08-28T16:42:51.719Z,2.03
2022-08-28T16:45:21.096Z,3.30
2022-08-28T16:47:50.108Z,3.67
2022-08-28T16:50:19.517Z,5.22
2022-08-28T16:52:48.426Z,6.18
2022-08-28T16:55:25.559Z,3.50
2022-08-28T17:00:27.200Z,1.98
2022-08-28T17:02:56.048Z,2.20
2022-08-28T17:05:25.765Z,3.03
2022-08-28T17:07:54.818Z,5.50
2022-08-28T17:10:26.166Z,3.13
2022-08-28T17:12:54.731Z,2.72
2022-08-28T17:15:23.296Z,3.05
2022-08-28T17:17:52.356Z,2.58
2022-08-28T17:20:37.474Z,3.63
2022-08-28T17:23:06.884Z,3.80
2022-08-28T17:25:37.328Z,4.35
2022-08-28T17:28:05.903Z,2.92
2022-08-28T17:30:34.679Z,3.47
2022-08-28T17:33:03.431Z,2.75
2022-08-28T17:35:32.237Z,2.22
2022-08-28T17:38:10.923Z,5.13
2022-08-28T17:40:43.239Z,3.10
2022-08-28T17:43:12.561Z,2.85
2022-08-28T17:45:41.170Z,2.30
2022-08-28T17:48:09.782Z,6.55
2022-08-28T17:50:38.402Z,2.22
2022-08-28T17:53:06.980Z,3.67
2022-08-28T17:55:36.292Z,2.88
2022-08-28T17:58:06.391Z,5.60
2022-08-28T18:00:35.002Z,2.10
2022-08-28T18:03:03.817Z,4.25
2022-08-28T18:05:32.650Z,3.47
2022-08-28T18:08:01.225Z,2.47
2022-08-28T18:10:33.437Z,3.83
2022-08-28T18:13:02.452Z,3.90
2022-08-28T18:15:33.002Z,3.80
2022-08-28T18:18:08.481Z,4.93
2022-08-28T18:20:37.266Z,3.03
2022-08-28T18:23:05.955Z,1.77
2022-08-28T18:25:51.477Z,2.47
2022-08-28T18:30:59.579Z,1.60
2022-08-28T18:33:29.241Z,2.65
2022-08-28T18:35:58.043Z,3.42
2022-08-28T18:38:28.277Z,2.35
2022-08-28T18:40:57.008Z,3.72
2022-08-28T18:43:25.774Z,2.67
2022-08-28T18:45:55.650Z,3.05
2022-08-28T18:48:24.598Z,1.70
2022-08-28T18:50:53.449Z,1.70
2022-08-28T18:53:24.737Z,3.55
2022-08-28T18:55:55.040Z,1.98
2022-08-28T18:58:27.542Z,5.38
2022-08-28T19:00:57.598Z,2.22
2022-08-28T19:03:26.277Z,2.60
2022-08-28T19:05:56.117Z,1.33
2022-08-28T19:08:25.297Z,4.18
2022-08-28T19:10:54.646Z,2.70
2022-08-28T19:13:23.636Z,2.20
2022-08-28T19:15:53.497Z,2.50
2022-08-28T19:18:23.842Z,2.35
2022-08-28T19:20:52.673Z,2.17
2022-08-28T19:23:21.204Z,1.92
2022-08-28T19:25:50.123Z,2.67
2022-08-28T19:28:18.881Z,4.28
2022-08-28T19:30:48.353Z,2.05
2022-08-28T19:33:17.580Z,4.07
2022-08-28T19:35:50.202Z,2.58
2022-08-28T19:38:18.958Z,3.13
2022-08-28T19:40:48.207Z,2.72
2022-08-28T19:43:17.303Z,2.22
2022-08-28T19:45:51.937Z,2.40
2022-08-28T19:48:24.715Z,4.53
2022-08-28T19:51:04.070Z,2.70
2022-08-28T19:53:36.163Z,3.00
2022-08-28T19:56:06.139Z,1.60
2022-08-28T19:58:35.068Z,2.90
2022-08-28T20:01:05.505Z,4.25
2022-08-28T20:03:36.347Z,3.65
2022-08-28T20:06:06.838Z,2.97
2022-08-28T20:08:38.385Z,2.38
2022-08-28T20:11:11.417Z,2.95
2022-08-28T20:13:41.763Z,2.17
2022-08-28T20:16:15.813Z,3.63
2022-08-28T20:18:45.734Z,3.67
2022-08-28T20:21:18.682Z,3.70
2022-08-28T20:23:55.201Z,3.40
2022-08-28T20:26:28.351Z,4.55
2022-08-28T20:28:57.610Z,3.00
2022-08-28T20:31:29.206Z,3.60
2022-08-28T20:33:57.890Z,2.03
2022-08-28T20:36:28.083Z,2.55
2022-08-28T20:38:56.911Z,3.85
2022-08-28T20:41:25.872Z,2.25
2022-08-28T20:43:54.500Z,3.55
2022-08-28T20:46:23.193Z,3.22
2022-08-28T20:48:51.844Z,3.45
2022-08-28T20:51:40.488Z,2.70
2022-08-28T20:54:10.425Z,2.85
2022-08-28T20:56:39.535Z,4.47
2022-08-28T20:59:09.110Z,2.72
2022-08-28T21:01:37.758Z,3.20
2022-08-28T21:04:06.968Z,4.97
2022-08-28T21:06:35.546Z,3.17
2022-08-28T21:09:04.192Z,2.47
2022-08-28T21:11:34.044Z,3.35
2022-08-28T21:14:02.543Z,3.50
2022-08-28T21:16:31.180Z,2.38
2022-08-28T21:19:15.185Z,3.00
2022-08-28T21:21:45.243Z,3.20
2022-08-28T21:24:16.030Z,2.53
2022-08-28T21:26:51.524Z,1.48
2022-08-28T21:31:52.225Z,2.78
2022-08-28T21:34:21.875Z,1.98
2022-08-28T21:36:51.565Z,2.83
2022-08-28T21:39:21.359Z,2.47
2022-08-28T21:41:51.478Z,4.03
2022-08-28T21:44:19.984Z,3.38
2022-08-28T21:46:48.483Z,2.72
2022-08-28T21:49:16.990Z,4.68
2022-08-28T21:51:45.648Z,2.92
2022-08-28T21:54:14.137Z,2.95
2022-08-28T21:56:43.180Z,3.08
2022-08-28T21:59:13.424Z,2.38
2022-08-28T22:01:42.248Z,2.47
2022-08-28T22:04:11.393Z,4.28
2022-08-28T22:06:40.722Z,4.03
2022-08-28T22:09:10.148Z,3.25
2022-08-28T22:11:38.732Z,5.40
2022-08-28T22:14:07.265Z,2.42
2022-08-28T22:16:37.182Z,2.15
2022-08-28T22:19:06.355Z,3.67
2022-08-28T22:21:52.465Z,2.70
2022-08-28T22:24:21.001Z,3.20
2022-08-28T22:26:50.498Z,2.20
2022-08-28T22:29:25.917Z,1.40
2022-08-28T22:31:55.872Z,5.28
2022-08-28T22:34:24.709Z,2.78
2022-08-28T22:36:53.262Z,4.85
2022-08-28T22:39:21.789Z,2.78
2022-08-28T22:41:50.980Z,5.65
2022-08-28T22:44:19.590Z,3.38
2022-08-28T22:46:48.105Z,4.15
2022-08-28T22:49:17.971Z,2.95
2022-08-28T22:51:46.513Z,5.47
2022-08-28T22:54:15.015Z,2.70
2022-08-28T22:56:43.780Z,3.50
2022-08-28T22:59:12.313Z,2.33
2022-08-28T23:01:42.332Z,2.17
2022-08-28T23:04:11.503Z,4.20
2022-08-28T23:06:41.825Z,6.10
2022-08-28T23:09:10.741Z,4.80
2022-08-28T23:11:39.364Z,4.07
2022-08-28T23:14:07.891Z,3.40
2022-08-28T23:16:36.451Z,2.92
2022-08-28T23:19:09.057Z,5.47
2022-08-28T23:21:40.194Z,3.30
2022-08-28T23:24:13.626Z,5.78
2022-08-28T23:26:42.434Z,2.92
2022-08-28T23:29:11.679Z,4.38
2022-08-28T23:31:40.770Z,2.38
2022-08-28T23:34:09.524Z,2.67
2022-08-28T23:36:39.642Z,3.53
2022-08-28T23:39:13.443Z,6.03
2022-08-28T23:41:42.135Z,3.50
2022-08-28T23:44:10.990Z,4.32
2022-08-28T23:46:41.076Z,4.28
2022-08-28T23:49:10.692Z,2.35
2022-08-28T23:51:39.309Z,2.42
2022-08-28T23:54:09.460Z,3.35
2022-08-28T23:56:39.408Z,5.07
2022-08-28T23:59:08.291Z,3.03
